Time;durP1;ratioP1;P1;durP2;ratioP2;P2;SDS_P1;SDS_P2;PMS_P1;PMS_P2;Temp;Humidity;BMP_temperature;BMP_pressure;BME280_temperature;BME280_humidity;BME280_pressure;Samples;Min_cycle;Max_cycle;Signal;HPM_P1;HPM_P2
2023/01/21 00:01:10;;;;;;;1.45;1.45;;;1.80;99.90;;;1.50;nan;101081.94;5027379;28;20206;-66
2023/01/21 00:03:37;;;;;;;0.20;0.20;;;1.80;99.90;;;1.52;nan;101087.88;5032190;28;20213;-66
2023/01/21 00:06:05;;;;;;;1.02;0.70;;;1.90;99.90;;;1.54;nan;101083.53;5032500;28;20210;-65
2023/01/21 00:08:32;;;;;;;1.00;1.00;;;1.90;99.90;;;1.56;nan;101093.75;4999172;28;20642;-66
2023/01/21 00:11:13;;;;;;;1.02;0.85;;;1.90;99.90;;;1.62;nan;101090.19;5013137;28;20222;-66
2023/01/21 00:13:42;;;;;;;0.93;0.93;;;2.00;99.90;;;1.63;nan;101090.16;5011832;28;20207;-66
2023/01/21 00:16:10;;;;;;;0.80;0.65;;;2.00;99.90;;;1.65;nan;101096.09;5020558;28;20259;-65
2023/01/21 00:18:37;;;;;;;1.00;1.00;;;2.00;99.90;;;1.64;nan;101102.09;5032055;28;20214;-65
2023/01/21 00:21:04;;;;;;;2.08;1.40;;;2.00;99.90;;;1.62;nan;101100.50;5031298;28;20629;-65
2023/01/21 00:23:31;;;;;;;0.77;0.65;;;2.00;99.90;;;1.62;nan;101108.19;5051750;28;20221;-65
2023/01/21 00:26:00;;;;;;;2.45;1.13;;;2.00;99.90;;;1.58;nan;101102.28;5039983;28;20364;-66
2023/01/21 00:28:33;;;;;;;2.40;2.10;;;2.00;99.90;;;1.63;nan;101109.88;5032641;28;20650;-65
2023/01/21 00:31:03;;;;;;;0.70;0.70;;;2.00;99.90;;;1.63;nan;101107.31;5030796;28;20230;-66
2023/01/21 00:33:32;;;;;;;1.80;0.50;;;2.00;99.90;;;1.65;nan;101108.94;5017060;28;20212;-64
2023/01/21 00:36:17;;;;;;;1.70;1.38;;;2.00;99.90;;;1.62;nan;101121.88;5013997;28;20209;-65
2023/01/21 00:38:47;;;;;;;2.20;2.10;;;2.00;99.90;;;1.62;nan;101121.06;5030847;28;20234;-66
2023/01/21 00:41:14;;;;;;;1.33;1.23;;;2.00;99.90;;;1.61;nan;101122.78;5013832;28;20206;-65
2023/01/21 00:43:42;;;;;;;2.47;1.23;;;2.00;99.90;;;1.62;nan;101132.16;5012963;28;20680;-66
2023/01/21 00:46:10;;;;;;;1.00;0.95;;;1.90;99.90;;;1.61;nan;101130.50;5031304;28;20206;-66
2023/01/21 00:48:37;;;;;;;1.33;0.65;;;1.90;99.90;;;1.59;nan;101132.28;5031370;28;20225;-65
2023/01/21 00:51:05;;;;;;;2.08;1.17;;;1.90;99.90;;;1.67;nan;101129.47;5020882;28;20206;-65
2023/01/21 00:53:36;;;;;;;0.50;0.50;;;2.00;99.90;;;1.56;nan;101143.47;5042129;28;20198;-65
2023/01/21 00:56:07;;;;;;;3.70;2.50;;;1.90;99.90;;;1.60;nan;101145.97;5050631;28;20205;-66
2023/01/21 00:58:34;;;;;;;1.35;1.25;;;1.90;99.90;;;1.50;nan;101156.50;5016802;28;20202;-65
2023/01/21 01:01:11;;;;;;;1.70;1.13;;;1.90;99.90;;;1.51;nan;101155.59;5013719;28;20209;-65
2023/01/21 01:03:39;;;;;;;1.48;1.38;;;1.90;99.90;;;1.51;nan;101160.75;4996436;28;20194;-66
2023/01/21 01:06:13;;;;;;;2.70;1.65;;;1.80;99.90;;;1.50;nan;101163.38;4993671;28;20222;-66
2023/01/21 01:08:42;;;;;;;0.60;0.60;;;1.90;99.90;;;1.40;nan;101172.22;5009169;28;20222;-65
2023/01/21 01:11:09;;;;;;;2.08;1.98;;;1.80;99.90;;;1.42;nan;101167.88;5013065;28;20212;-66
2023/01/21 01:13:37;;;;;;;1.42;1.42;;;1.80;99.90;;;1.38;nan;101185.13;5030364;28;20208;-67
2023/01/21 01:16:05;;;;;;;0.63;0.63;;;1.70;99.90;;;1.35;nan;101187.75;5030153;28;20655;-67
2023/01/21 01:18:35;;;;;;;1.20;1.20;;;1.70;99.90;;;1.39;nan;101184.22;5030301;28;20206;-65
2023/01/21 01:21:03;;;;;;;1.52;1.33;;;1.70;99.90;;;1.43;nan;101201.25;5012411;28;20217;-66
2023/01/21 01:23:30;;;;;;;1.73;1.70;;;1.80;99.90;;;1.44;nan;101202.09;5012201;28;20712;-66
2023/01/21 01:26:01;;;;;;;0.50;0.50;;;1.80;99.90;;;1.40;nan;101205.66;5021157;28;20670;-67
2023/01/21 01:28:29;;;;;;;0.90;0.90;;;1.70;99.90;;;1.45;nan;101207.22;5010118;28;20601;-65
2023/01/21 01:30:57;;;;;;;0.50;0.50;;;1.80;99.90;;;1.46;nan;101211.47;5036771;28;20238;-66
2023/01/21 01:33:25;;;;;;;0.77;0.77;;;1.80;99.90;;;1.50;nan;101220.81;5048188;28;20213;-64
2023/01/21 01:35:52;;;;;;;0.93;0.93;;;1.80;99.90;;;1.51;nan;101221.66;5031070;28;20214;-65
2023/01/21 01:38:21;;;;;;;0.70;0.70;;;1.80;99.90;;;1.53;nan;101222.47;5029582;28;20682;-66
2023/01/21 01:40:51;;;;;;;0.45;0.45;;;1.90;99.90;;;1.52;nan;101226.75;5007460;28;20283;-65
2023/01/21 01:43:46;;;;;;;1.15;1.15;;;1.90;99.90;;;1.53;nan;101227.59;5026684;28;20283;-66
2023/01/21 01:46:13;;;;;;;2.25;2.05;;;1.90;99.90;;;1.54;nan;101234.41;5040269;28;20585;-66
2023/01/21 01:48:43;;;;;;;0.88;0.88;;;1.80;99.90;;;1.51;nan;101230.19;5028743;28;20768;-65
2023/01/21 01:51:14;;;;;;;1.52;1.42;;;1.80;99.90;;;1.50;nan;101236.22;5012870;28;20206;-66
2023/01/21 01:53:44;;;;;;;1.77;1.67;;;1.80;99.90;;;1.51;nan;101234.50;5012700;28;20674;-65
2023/01/21 01:56:12;;;;;;;0.93;0.93;;;1.80;99.90;;;1.52;nan;101234.47;5004015;28;20202;-65
2023/01/21 01:58:39;;;;;;;1.42;1.25;;;1.80;99.90;;;1.53;nan;101241.28;5029994;28;20649;-66
2023/01/21 02:01:06;;;;;;;1.08;1.08;;;1.80;99.90;;;1.53;nan;101233.56;5030019;28;20205;-65
2023/01/21 02:03:45;;;;;;;2.85;2.65;;;1.90;99.90;;;1.54;nan;101237.00;5043836;28;20204;-65
2023/01/21 02:06:15;;;;;;;2.88;2.67;;;1.90;99.90;;;1.54;nan;101237.84;5021613;28;20201;-66
2023/01/21 02:08:44;;;;;;;0.77;0.77;;;1.90;99.90;;;1.57;nan;101239.50;5029736;28;20214;-65
2023/01/21 02:11:18;;;;;;;1.58;1.58;;;1.90;99.90;;;1.58;nan;101248.06;5001554;28;20579;-66
2023/01/21 02:13:53;;;;;;;1.55;1.45;;;1.90;99.90;;;1.62;nan;101247.09;5027010;28;20194;-66
2023/01/21 02:16:39;;;;;;;0.50;0.47;;;1.90;99.90;;;1.65;nan;101253.00;5012228;28;20212;-66
2023/01/21 02:19:46;;;;;;;2.30;2.20;;;2.00;99.90;;;1.65;nan;101247.84;5026840;28;20298;-66
2023/01/21 02:22:25;;;;;;;3.38;3.08;;;2.00;99.90;;;1.64;nan;101246.16;5032793;28;20206;-65
2023/01/21 02:25:07;;;;;;;3.83;3.47;;;2.00;99.90;;;1.66;nan;101252.13;5030253;28;20205;-66
2023/01/21 02:28:14;;;;;;;2.65;2.35;;;2.00;99.90;;;1.67;nan;101255.53;5029901;28;20603;-65
2023/01/21 02:31:21;;;;;;;0.75;0.75;;;2.00;99.90;;;1.68;nan;101252.06;5030013;28;20225;-67
2023/01/21 02:34:07;;;;;;;0.32;0.32;;;2.00;99.90;;;1.70;nan;101261.44;5029580;28;20213;-65
2023/01/21 02:36:47;;;;;;;5.15;3.70;;;2.00;99.90;;;1.69;nan;101251.19;5001822;28;20559;-66
2023/01/21 02:39:34;;;;;;;3.70;3.20;;;2.00;99.90;;;1.66;nan;101259.84;4995797;28;20222;-66
2023/01/21 02:42:46;;;;;;;3.22;2.70;;;2.00;99.90;;;1.66;nan;101266.72;5007388;28;20202;-64
2023/01/21 02:45:28;;;;;;;6.75;3.45;;;2.00;99.90;;;1.66;nan;101269.28;5035663;28;20212;-64
2023/01/21 02:48:07;;;;;;;3.40;3.10;;;2.00;99.90;;;1.64;nan;101274.44;5015046;28;20206;-65
2023/01/21 02:50:54;;;;;;;4.47;4.05;;;2.00;99.90;;;1.63;nan;101270.19;5025104;28;20231;-65
2023/01/21 02:53:33;;;;;;;6.38;4.05;;;2.00;99.90;;;1.64;nan;101278.78;5018285;28;20221;-66
2023/01/21 02:56:08;;;;;;;3.05;2.33;;;2.00;99.90;;;1.66;nan;101284.72;5026791;28;20320;-66
2023/01/21 02:58:41;;;;;;;6.15;4.82;;;2.00;99.90;;;1.63;nan;101284.78;5028910;28;20690;-66
2023/01/21 03:01:45;;;;;;;4.70;4.20;;;2.00;99.90;;;1.59;nan;101296.88;5005407;28;20620;-66
2023/01/21 03:04:34;;;;;;;3.92;3.33;;;1.90;99.90;;;1.56;nan;101294.38;5029657;28;20209;-66
2023/01/21 03:07:35;;;;;;;3.50;3.30;;;1.90;99.90;;;1.52;nan;101293.63;5042354;28;20215;-66
2023/01/21 03:10:22;;;;;;;5.43;4.20;;;1.80;99.90;;;1.46;nan;101298.91;5017559;28;20233;-66
2023/01/21 03:13:10;;;;;;;5.50;4.85;;;1.80;99.90;;;1.41;nan;101302.47;5041910;28;20198;-66
2023/01/21 03:18:44;;;;;;;5.30;4.57;;;1.70;99.90;;;1.36;nan;101307.69;5017194;28;20197;-66
2023/01/21 03:21:26;;;;;;;7.43;5.43;;;1.70;99.90;;;1.34;nan;101306.91;5003815;23;20232;-64
2023/01/21 03:23:54;;;;;;;6.63;4.45;;;1.70;99.90;;;1.34;nan;101306.06;4972345;28;20731;-64
2023/01/21 03:26:32;;;;;;;4.75;4.15;;;1.70;99.90;;;1.31;nan;101314.69;4956852;28;20201;-63
2023/01/21 03:29:06;;;;;;;5.40;4.60;;;1.60;99.90;;;1.31;nan;101308.69;4952947;29;20233;-64
2023/01/21 03:31:36;;;;;;;7.95;5.68;;;1.60;99.90;;;1.28;nan;101319.91;4935300;29;20232;-64
2023/01/21 03:34:07;;;;;;;6.53;4.93;;;1.60;99.90;;;1.27;nan;101318.22;4934537;29;20670;-64
2023/01/21 03:37:07;;;;;;;7.50;5.72;;;1.60;99.90;;;1.26;nan;101321.66;4946410;29;20213;-64
2023/01/21 03:39:47;;;;;;;10.40;7.30;;;1.60;99.90;;;1.22;nan;101324.34;4925688;29;20228;-65
2023/01/21 03:42:15;;;;;;;7.63;6.05;;;1.60;99.90;;;1.17;nan;101323.63;4932832;29;20209;-64
2023/01/21 03:44:42;;;;;;;12.27;8.25;;;1.50;99.90;;;1.11;nan;101322.00;4936658;29;20211;-64
2023/01/21 03:47:30;;;;;;;13.73;8.35;;;1.50;99.90;;;1.11;nan;101329.72;4943234;29;20646;-64
2023/01/21 03:50:16;;;;;;;14.70;8.90;;;1.40;99.90;;;1.05;nan;101327.28;4925786;29;20233;-68
2023/01/21 03:52:44;;;;;;;16.63;8.95;;;1.40;99.90;;;1.05;nan;101331.56;4945739;28;20205;-63
2023/01/21 03:55:13;;;;;;;15.07;8.25;;;1.40;99.90;;;1.03;nan;101333.34;4943938;29;20205;-64
2023/01/21 03:57:39;;;;;;;18.88;9.32;;;1.40;99.90;;;1.00;nan;101334.25;4932119;29;20202;-63
2023/01/21 04:00:08;;;;;;;26.42;9.98;;;1.40;99.90;;;0.98;nan;101336.00;4944831;28;20233;-63
2023/01/21 04:02:35;;;;;;;10.45;5.55;;;1.30;99.90;;;0.99;nan;101347.97;4953587;28;20216;-64
2023/01/21 04:05:01;;;;;;;11.38;6.70;;;1.30;99.90;;;0.97;nan;101349.75;4949707;29;20205;-63
2023/01/21 04:07:28;;;;;;;13.48;6.80;;;1.30;99.90;;;0.98;nan;101345.44;4935558;29;20220;-63
2023/01/21 04:09:55;;;;;;;16.75;9.40;;;1.30;99.90;;;0.99;nan;101355.69;4933790;29;20245;-64
2023/01/21 04:12:22;;;;;;;20.55;10.50;;;1.30;99.90;;;0.97;nan;101352.31;4935321;29;20216;-65
2023/01/21 04:14:49;;;;;;;15.40;8.88;;;1.30;99.90;;;0.99;nan;101360.84;4942194;29;20194;-64
2023/01/21 04:17:16;;;;;;;17.75;10.18;;;1.30;99.90;;;0.99;nan;101365.13;4929966;29;20205;-68
2023/01/21 04:19:43;;;;;;;16.30;8.82;;;1.40;99.90;;;1.01;nan;101368.50;4933947;29;20672;-64
2023/01/21 04:22:10;;;;;;;14.43;9.27;;;1.40;99.90;;;0.99;nan;101370.25;4944596;29;20279;-64
2023/01/21 04:24:37;;;;;;;21.83;11.07;;;1.30;99.90;;;0.95;nan;101372.06;4941032;29;20656;-64
2023/01/21 04:27:04;;;;;;;21.90;11.52;;;1.30;99.90;;;0.97;nan;101372.00;4933607;29;20220;-62
2023/01/21 04:29:31;;;;;;;20.50;10.57;;;1.30;99.90;;;0.99;nan;101372.81;4944661;28;20238;-65
2023/01/21 04:31:57;;;;;;;23.65;12.77;;;1.30;99.90;;;0.98;nan;101382.25;4941505;29;20692;-64
2023/01/21 04:34:24;;;;;;;16.02;8.93;;;1.30;99.90;;;0.97;nan;101385.72;4934947;29;20206;-63
2023/01/21 04:36:51;;;;;;;17.58;9.05;;;1.30;99.90;;;0.94;nan;101387.50;4934298;29;20209;-64
2023/01/21 04:39:18;;;;;;;15.75;8.50;;;1.30;99.90;;;0.89;nan;101379.91;4934389;29;20205;-63
2023/01/21 04:41:45;;;;;;;19.55;10.32;;;1.20;99.90;;;0.84;nan;101376.56;4934087;29;20754;-64
2023/01/21 04:44:12;;;;;;;17.75;10.27;;;1.20;99.90;;;0.79;nan;101386.94;4933677;29;20264;-63
2023/01/21 04:46:39;;;;;;;20.77;9.45;;;1.10;99.90;;;0.73;nan;101376.78;4934581;29;20209;-65
2023/01/21 04:49:06;;;;;;;13.95;6.70;;;1.10;99.90;;;0.75;nan;101380.16;4933572;29;20240;-65
2023/01/21 04:51:33;;;;;;;19.27;10.30;;;1.10;99.90;;;0.75;nan;101387.00;4934332;29;20738;-66
2023/01/21 04:54:00;;;;;;;19.40;11.15;;;1.10;99.90;;;0.76;nan;101388.72;4935071;29;20664;-63
2023/01/21 04:56:27;;;;;;;21.67;12.52;;;1.10;99.90;;;0.73;nan;101388.78;4945120;29;20577;-64
2023/01/21 04:58:53;;;;;;;19.88;10.23;;;1.10;99.90;;;0.70;nan;101392.25;4949992;29;20208;-64
2023/01/21 05:01:20;;;;;;;17.85;9.25;;;1.10;99.90;;;0.67;nan;101391.47;4933475;29;20229;-64
2023/01/21 05:03:47;;;;;;;21.80;11.27;;;1.00;99.90;;;0.64;nan;101391.50;4933511;29;20275;-66
2023/01/21 05:06:14;;;;;;;22.13;12.18;;;1.00;99.90;;;0.63;nan;101394.97;4934011;29;20205;-64
2023/01/21 05:08:41;;;;;;;19.75;10.77;;;1.00;99.90;;;0.61;nan;101407.84;4933631;29;20202;-63
2023/01/21 05:11:10;;;;;;;21.88;10.52;;;1.00;99.90;;;0.56;nan;101406.22;4919861;29;20225;-64
2023/01/21 05:13:36;;;;;;;16.45;9.57;;;0.90;99.90;;;0.50;nan;101416.63;4947861;28;20198;-64
2023/01/21 05:16:07;;;;;;;25.05;12.35;;;0.90;99.90;;;0.45;nan;101415.84;4934105;29;20202;-66
2023/01/21 05:18:37;;;;;;;23.73;12.90;;;0.80;99.90;;;0.36;nan;101421.16;4933438;29;20231;-63
2023/01/21 05:21:04;;;;;;;21.40;10.00;;;0.70;99.90;;;0.30;nan;101416.97;4934250;29;20291;-66
2023/01/21 05:23:32;;;;;;;23.73;10.55;;;0.70;99.90;;;0.27;nan;101409.34;4931489;29;20213;-64
2023/01/21 05:25:58;;;;;;;18.35;9.25;;;0.60;99.90;;;0.22;nan;101417.97;4933721;29;20205;-63
2023/01/21 05:28:25;;;;;;;18.98;11.93;;;0.60;99.90;;;0.17;nan;101423.19;4933187;29;20205;-63
2023/01/21 05:30:52;;;;;;;16.20;8.90;;;0.60;99.90;;;0.06;nan;101421.69;4933482;29;20609;-65
2023/01/21 05:33:24;;;;;;;21.13;12.43;;;0.40;99.90;;;-0.04;nan;101428.66;4932782;29;20206;-64
2023/01/21 05:35:51;;;;;;;19.17;10.32;;;0.40;99.90;;;-0.08;nan;101433.00;4932909;29;20209;-64
2023/01/21 05:38:18;;;;;;;16.15;9.02;;;0.30;99.90;;;-0.11;nan;101440.75;4932438;29;20210;-64
2023/01/21 05:40:45;;;;;;;13.20;6.47;;;0.30;99.90;;;-0.14;nan;101448.50;4947818;28;20228;-64
2023/01/21 05:43:12;;;;;;;16.95;9.18;;;0.20;99.90;;;-0.16;nan;101452.81;4932299;29;20210;-64
2023/01/21 05:45:39;;;;;;;14.82;8.32;;;0.20;99.90;;;-0.21;nan;101459.72;4932491;29;20227;-64
2023/01/21 05:48:06;;;;;;;18.65;10.88;;;0.20;99.90;;;-0.23;nan;101458.03;4932359;29;20690;-67
2023/01/21 05:50:33;;;;;;;18.75;9.35;;;0.20;99.90;;;-0.29;nan;101460.69;4941970;28;20228;-64
2023/01/21 05:53:00;;;;;;;16.83;9.90;;;0.10;99.90;;;-0.35;nan;101460.78;4938591;29;20248;-65
2023/01/21 05:55:27;;;;;;;15.88;7.95;;;0.10;99.90;;;-0.36;nan;101467.63;4946158;29;20665;-65
2023/01/21 05:57:54;;;;;;;13.38;7.85;;;0.00;99.90;;;-0.38;nan;101471.91;4950128;29;20238;-64
2023/01/21 06:00:21;;;;;;;11.40;7.05;;;0.00;99.90;;;-0.38;nan;101471.91;4931992;29;20225;-65
2023/01/21 06:02:48;;;;;;;14.60;7.00;;;0.00;99.90;;;-0.38;nan;101477.06;4932843;29;20205;-64
2023/01/21 06:05:15;;;;;;;14.65;7.90;;;0.00;99.90;;;-0.40;nan;101486.47;4932287;29;20205;-64
2023/01/21 06:07:42;;;;;;;12.80;7.32;;;0.00;99.90;;;-0.39;nan;101485.63;4932695;29;20227;-66
2023/01/21 06:10:09;;;;;;;14.30;8.65;;;0.00;99.90;;;-0.43;nan;101480.56;4932333;29;20596;-66
2023/01/21 06:12:36;;;;;;;13.43;7.22;;;0.00;99.90;;;-0.50;nan;101479.78;4933516;29;20221;-64
2023/01/21 06:15:04;;;;;;;15.07;8.80;;;-0.10;99.90;;;-0.53;nan;101482.38;4932266;29;20228;-64
2023/01/21 06:17:31;;;;;;;13.35;6.15;;;-0.10;99.90;;;-0.53;nan;101484.94;4932825;29;20210;-68
2023/01/21 06:19:57;;;;;;;14.88;6.75;;;-0.10;99.90;;;-0.53;nan;101487.50;4936202;28;20551;-64
2023/01/21 06:22:24;;;;;;;15.98;7.80;;;-0.10;99.90;;;-0.56;nan;101491.84;4943733;28;20245;-64
2023/01/21 06:24:51;;;;;;;8.00;5.07;;;-0.10;99.90;;;-0.60;nan;101492.75;4940811;29;20201;-64
2023/01/21 06:27:18;;;;;;;13.32;7.15;;;-0.20;99.90;;;-0.64;nan;101502.22;4932726;29;20209;-63
2023/01/21 06:29:45;;;;;;;11.30;6.95;;;-0.20;99.90;;;-0.67;nan;101494.53;4932166;29;20233;-64
2023/01/21 06:32:12;;;;;;;11.10;6.55;;;-0.30;99.90;;;-0.70;nan;101509.13;4932462;29;20205;-64
2023/01/21 06:34:39;;;;;;;12.80;6.38;;;-0.30;99.90;;;-0.72;nan;101515.97;4932543;29;20209;-64
2023/01/21 06:37:06;;;;;;;13.60;7.75;;;-0.30;99.90;;;-0.78;nan;101516.88;4933898;29;20687;-64
2023/01/21 06:39:34;;;;;;;15.32;9.07;;;-0.30;99.90;;;-0.83;nan;101519.50;4935449;29;20254;-68
2023/01/21 06:42:01;;;;;;;10.20;5.53;;;-0.30;99.90;;;-0.83;nan;101523.75;4935711;29;20213;-68
2023/01/21 06:44:28;;;;;;;15.98;9.02;;;-0.30;99.90;;;-0.83;nan;101523.75;4935904;29;20212;-64
2023/01/21 06:46:55;;;;;;;13.30;7.20;;;-0.40;99.90;;;-0.92;nan;101535.00;4938187;28;20236;-64
2023/01/21 06:49:29;;;;;;;14.57;6.95;;;-0.40;99.90;;;-0.98;nan;101532.47;4935065;29;20224;-64
2023/01/21 06:51:56;;;;;;;15.48;8.88;;;-0.50;99.90;;;-0.99;nan;101542.75;4936491;29;20585;-64
2023/01/21 06:54:23;;;;;;;13.35;7.97;;;-0.50;99.90;;;-1.05;nan;101542.81;4946524;29;20212;-63
2023/01/21 06:56:50;;;;;;;12.65;7.65;;;-0.60;99.90;;;-1.08;nan;101540.25;4944851;29;20625;-65
2023/01/21 06:59:17;;;;;;;7.07;4.35;;;-0.60;99.90;;;-1.12;nan;101542.00;4935234;29;20205;-65
2023/01/21 07:01:43;;;;;;;17.85;8.50;;;-0.60;99.90;;;-1.11;nan;101542.88;4935207;29;20206;-67
2023/01/21 07:04:10;;;;;;;18.25;7.95;;;-0.70;99.90;;;-1.12;nan;101548.84;4935758;29;20213;-66
2023/01/21 07:06:37;;;;;;;17.13;10.30;;;-0.70;99.90;;;-1.10;nan;101549.66;4934792;29;20201;-63
2023/01/21 07:09:05;;;;;;;14.82;8.20;;;-0.70;99.90;;;-1.16;nan;101550.59;4935228;29;20217;-64
2023/01/21 07:11:33;;;;;;;18.42;10.15;;;-0.70;99.90;;;-1.19;nan;101554.91;4933579;29;20225;-66
2023/01/21 07:14:00;;;;;;;14.48;7.40;;;-0.70;99.90;;;-1.21;nan;101554.91;4935548;29;20212;-68
2023/01/21 07:16:27;;;;;;;16.77;9.48;;;-0.80;99.90;;;-1.22;nan;101562.59;4935684;29;20803;-65
2023/01/21 07:18:54;;;;;;;11.95;6.70;;;-0.80;99.90;;;-1.21;nan;101551.47;4934857;29;20264;-65
2023/01/21 07:21:23;;;;;;;15.45;8.60;;;-0.80;99.90;;;-1.22;nan;101552.38;4935034;29;20268;-65
2023/01/21 07:23:54;;;;;;;15.30;8.18;;;-0.80;99.90;;;-1.25;nan;101560.06;4957467;28;20216;-68
2023/01/21 07:26:22;;;;;;;16.17;9.20;;;-0.80;99.90;;;-1.25;nan;101563.47;4947841;28;20212;-66
2023/01/21 07:28:48;;;;;;;8.15;4.43;;;-0.80;99.90;;;-1.28;nan;101560.97;4933470;29;20205;-64
2023/01/21 07:31:15;;;;;;;16.00;7.97;;;-0.80;99.90;;;-1.23;nan;101561.75;4934719;29;20236;-65
2023/01/21 07:33:42;;;;;;;17.13;9.65;;;-0.80;99.90;;;-1.19;nan;101571.09;4934769;29;20206;-67
2023/01/21 07:36:09;;;;;;;21.35;10.02;;;-0.70;99.90;;;-1.18;nan;101577.06;4935188;29;20667;-64
2023/01/21 07:38:36;;;;;;;17.48;9.90;;;-0.70;99.90;;;-1.17;nan;101584.72;4935036;29;20201;-63
2023/01/21 07:41:03;;;;;;;17.52;10.38;;;-0.70;99.90;;;-1.13;nan;101580.47;4935307;29;20306;-64
2023/01/21 07:43:30;;;;;;;17.83;10.07;;;-0.60;99.90;;;-1.11;nan;101588.97;4933737;29;20291;-64
2023/01/21 07:45:58;;;;;;;17.52;10.40;;;-0.70;99.90;;;-1.07;nan;101596.63;4938303;29;20236;-66
2023/01/21 07:48:26;;;;;;;16.65;9.82;;;-0.60;99.90;;;-1.07;nan;101600.88;4932860;28;20196;-64
2023/01/21 07:50:57;;;;;;;14.82;8.93;;;-0.60;99.90;;;-1.10;nan;101593.22;4944518;28;20241;-68
2023/01/21 07:53:25;;;;;;;19.17;11.73;;;-0.60;99.90;;;-1.05;nan;101591.47;4935254;29;20209;-64
2023/01/21 07:55:52;;;;;;;17.50;10.10;;;-0.60;99.90;;;-0.99;nan;101601.66;4934470;29;20271;-65
2023/01/21 07:58:19;;;;;;;19.08;10.40;;;-0.50;99.90;;;-0.93;nan;101588.78;4945373;29;20708;-64
2023/01/21 08:00:46;;;;;;;17.15;10.18;;;-0.50;99.90;;;-0.86;nan;101600.69;4936990;28;20253;-64
2023/01/21 08:03:13;;;;;;;17.42;10.15;;;-0.40;99.90;;;-0.85;nan;101605.78;4937188;29;20215;-66
2023/01/21 08:05:40;;;;;;;12.05;7.32;;;-0.30;99.90;;;-0.74;nan;101605.66;4953519;29;20207;-64
2023/01/21 08:08:07;;;;;;;19.17;12.05;;;-0.30;99.90;;;-0.65;nan;101604.72;4945171;29;20209;-64
2023/01/21 08:10:34;;;;;;;17.83;10.30;;;-0.20;99.90;;;-0.62;nan;101612.38;4940493;29;20558;-64
2023/01/21 08:13:01;;;;;;;16.20;8.88;;;-0.10;99.90;;;-0.56;nan;101617.44;4936459;29;20209;-65
2023/01/21 08:15:28;;;;;;;18.63;11.60;;;-0.10;99.90;;;-0.61;nan;101622.63;4934657;29;20210;-65
2023/01/21 08:17:55;;;;;;;18.10;10.95;;;-0.10;99.90;;;-0.56;nan;101618.31;4936179;29;20214;-64
2023/01/21 08:20:22;;;;;;;17.83;9.82;;;-0.10;99.90;;;-0.49;nan;101619.91;4946677;28;20243;-64
2023/01/21 08:22:49;;;;;;;20.17;10.88;;;0.00;99.90;;;-0.38;nan;101620.66;4937177;29;20201;-67
2023/01/21 08:25:17;;;;;;;18.75;9.35;;;0.10;99.90;;;-0.30;nan;101631.66;4934028;29;20306;-64
2023/01/21 08:27:44;;;;;;;18.45;10.23;;;0.20;99.90;;;-0.23;nan;101619.59;4933094;29;20206;-66
2023/01/21 08:30:11;;;;;;;14.27;8.77;;;0.30;99.90;;;-0.19;nan;101624.69;4941874;29;20237;-64
2023/01/21 08:32:38;;;;;;;15.43;9.07;;;0.30;99.90;;;-0.11;nan;101628.00;4933280;29;20252;-64
2023/01/21 08:35:06;;;;;;;14.98;7.97;;;0.40;99.90;;;0.05;nan;101632.94;4935492;29;20220;-65
2023/01/21 08:37:33;;;;;;;10.85;5.53;;;0.60;99.90;;;0.14;nan;101630.25;4935796;29;20209;-63
2023/01/21 08:40:00;;;;;;;14.82;7.85;;;0.70;99.90;;;0.42;nan;101632.44;4934862;29;20237;-65
2023/01/21 08:42:27;;;;;;;13.77;7.57;;;0.90;99.90;;;0.77;nan;101629.31;4933457;29;20205;-65
2023/01/21 08:44:54;;;;;;;14.95;9.35;;;1.20;99.90;;;0.96;nan;101635.84;4934848;29;20220;-65
2023/01/21 08:47:21;;;;;;;15.02;9.95;;;1.50;99.90;;;1.10;nan;101635.63;4933332;29;20205;-64
2023/01/21 08:49:48;;;;;;;12.25;7.32;;;1.60;99.90;;;1.17;nan;101640.59;4934307;29;20745;-65
2023/01/21 08:52:16;;;;;;;12.30;5.90;;;1.70;99.90;;;1.30;nan;101634.38;4933794;29;20213;-69
2023/01/21 08:54:43;;;;;;;15.55;7.72;;;1.90;99.90;;;1.35;nan;101648.00;4942870;29;20200;-65
2023/01/21 08:57:10;;;;;;;15.68;8.50;;;1.90;99.90;;;1.32;nan;101626.66;4939230;28;20206;-65
2023/01/21 08:59:37;;;;;;;18.85;12.00;;;1.90;99.90;;;1.45;nan;101636.66;4933424;29;20221;-64
2023/01/21 09:02:07;;;;;;;16.95;9.15;;;2.10;99.90;;;1.83;nan;101647.97;4933600;29;20220;-65
2023/01/21 09:04:34;;;;;;;16.75;10.30;;;2.40;99.90;;;2.20;nan;101648.88;4934160;29;20209;-65
2023/01/21 09:07:01;;;;;;;20.38;11.82;;;2.80;99.90;;;2.76;nan;101653.59;4933552;29;20231;-65
2023/01/21 09:09:28;;;;;;;17.20;10.07;;;3.40;99.90;;;2.85;nan;101637.94;4933684;29;20229;-66
2023/01/21 09:11:54;;;;;;;16.48;10.77;;;3.60;99.90;;;2.78;nan;101651.84;4933914;29;20225;-67
2023/01/21 09:14:22;;;;;;;17.48;12.10;;;3.50;99.90;;;2.54;nan;101644.66;4934205;29;20251;-66
2023/01/21 09:16:50;;;;;;;18.70;11.38;;;3.30;99.90;;;2.17;nan;101649.78;4925343;29;20695;-64
2023/01/21 09:19:17;;;;;;;17.23;11.07;;;2.90;99.90;;;1.79;nan;101659.19;4932603;29;20205;-67
2023/01/21 09:21:45;;;;;;;15.30;8.05;;;2.50;99.90;;;1.53;nan;101657.94;4934937;29;20223;-64
2023/01/21 09:24:12;;;;;;;18.05;11.23;;;2.20;99.90;;;1.13;nan;101662.09;4934805;29;20587;-64
2023/01/21 09:26:45;;;;;;;15.07;8.48;;;1.90;99.90;;;0.96;nan;101671.81;4941349;29;20206;-65
2023/01/21 09:29:12;;;;;;;18.40;9.70;;;1.60;99.90;;;0.95;nan;101680.41;4938158;28;20204;-65
2023/01/21 09:31:39;;;;;;;18.45;11.48;;;1.50;99.90;;;0.85;nan;101681.44;4945644;28;20388;-64
2023/01/21 09:34:06;;;;;;;20.30;10.35;;;1.50;99.90;;;0.76;nan;101684.13;4939753;29;20697;-64
2023/01/21 09:36:34;;;;;;;17.00;9.35;;;1.30;99.90;;;0.84;nan;101684.88;4937835;29;20260;-65
2023/01/21 09:39:01;;;;;;;19.30;11.52;;;1.30;99.90;;;0.86;nan;101679.69;4944444;29;20221;-64
2023/01/21 09:41:34;;;;;;;17.00;9.90;;;1.40;99.90;;;0.81;nan;101684.91;4950368;28;20221;-64
2023/01/21 09:44:19;;;;;;;19.52;11.75;;;1.40;99.90;;;0.84;nan;101687.44;4933991;29;20213;-65
2023/01/21 09:47:03;;;;;;;15.90;8.85;;;1.40;99.90;;;0.81;nan;101697.75;4935208;29;20216;-65
2023/01/21 09:49:34;;;;;;;16.08;8.65;;;1.40;99.90;;;0.90;nan;101696.75;4933286;29;20228;-64
2023/01/21 09:52:29;;;;;;;17.70;11.30;;;1.40;99.90;;;0.85;nan;101701.13;4940259;29;20229;-64
2023/01/21 09:54:57;;;;;;;22.50;11.75;;;1.40;99.90;;;0.84;nan;101702.84;4947837;29;20282;-63
2023/01/21 09:57:45;;;;;;;22.02;13.18;;;1.30;99.90;;;0.78;nan;101708.09;4951861;28;20238;-64
2023/01/21 10:00:32;;;;;;;17.92;10.10;;;1.30;99.90;;;0.78;nan;101713.22;4943166;28;20290;-63
2023/01/21 10:03:19;;;;;;;19.05;10.13;;;1.30;99.90;;;0.73;nan;101699.59;4941337;29;20560;-64
2023/01/21 10:05:56;;;;;;;18.85;10.07;;;1.30;99.90;;;0.71;nan;101704.75;4940726;29;20675;-66
2023/01/21 10:08:42;;;;;;;11.68;7.10;;;1.20;99.90;;;0.85;nan;101707.13;4937745;29;20215;-63
2023/01/21 10:11:21;;;;;;;20.35;12.10;;;1.30;99.90;;;0.84;nan;101707.97;4951121;28;20269;-63
2023/01/21 10:14:19;;;;;;;17.98;8.85;;;1.30;99.90;;;1.11;nan;101702.41;4947321;29;20210;-65
2023/01/21 10:17:21;;;;;;;12.23;7.45;;;1.50;99.90;;;1.20;nan;101691.13;4955591;28;20201;-64
2023/01/21 10:20:15;;;;;;;5.97;3.05;;;1.70;99.90;;;1.47;nan;101706.06;4935297;28;20241;-65
2023/01/21 10:22:53;;;;;;;20.17;10.40;;;1.90;99.90;;;1.49;nan;101705.19;4935802;29;20212;-65
2023/01/21 10:25:33;;;;;;;10.75;7.25;;;2.00;99.90;;;1.48;nan;101697.50;4944835;29;20211;-65
2023/01/21 10:28:21;;;;;;;19.77;11.20;;;2.00;99.90;;;1.51;nan;101702.59;4951637;29;20204;-63
2023/01/21 10:31:14;;;;;;;5.55;3.25;;;2.00;99.90;;;1.61;nan;101691.25;4927305;29;20233;-64
2023/01/21 10:33:41;;;;;;;16.08;9.35;;;2.10;99.90;;;1.68;nan;101700.56;4942547;29;20723;-65
2023/01/21 10:36:23;;;;;;;15.77;7.85;;;2.20;99.90;;;1.91;nan;101694.97;4934982;29;20694;-64
2023/01/21 10:39:14;;;;;;;10.60;6.50;;;2.40;99.90;;;2.08;nan;101701.50;4924367;29;20205;-65
2023/01/21 10:41:59;;;;;;;17.27;10.73;;;2.50;99.90;;;2.15;nan;101692.75;4934685;29;20882;-65
2023/01/21 10:45:16;;;;;;;10.57;6.30;;;2.70;99.90;;;2.16;nan;101699.59;4938573;29;20213;-65
2023/01/21 10:47:49;;;;;;;14.40;8.38;;;2.70;99.90;;;2.26;nan;101700.25;4935443;29;20713;-65
2023/01/21 10:50:41;;;;;;;15.85;8.75;;;2.80;99.90;;;2.22;nan;101699.47;4936295;29;20237;-64
2023/01/21 10:53:19;;;;;;;18.80;9.15;;;2.70;99.90;;;2.20;nan;101695.22;4929774;29;20671;-65